sensor_id;sensor_type;location;lat;lon;timestamp;P1;durP1;ratioP1;P2;durP2;ratioP2
32639;SDS011;19049;52.524;11.468;2022-11-04T00:01:15;4.80;;;3.10;;
32639;SDS011;19049;52.524;11.468;2022-11-04T00:03:40;5.80;;;3.40;;
32639;SDS011;19049;52.524;11.468;2022-11-04T00:06:06;5.40;;;3.07;;
32639;SDS011;19049;52.524;11.468;2022-11-04T00:08:33;5.23;;;3.20;;
32639;SDS011;19049;52.524;11.468;2022-11-04T00:10:58;7.23;;;3.60;;
32639;SDS011;19049;52.524;11.468;2022-11-04T00:13:44;6.47;;;3.57;;
32639;SDS011;19049;52.524;11.468;2022-11-04T00:16:10;6.23;;;2.97;;
32639;SDS011;19049;52.524;11.468;2022-11-04T00:18:55;4.97;;;3.50;;
32639;SDS011;19049;52.524;11.468;2022-11-04T00:21:21;4.67;;;3.37;;
32639;SDS011;19049;52.524;11.468;2022-11-04T00:24:07;3.77;;;3.07;;
32639;SDS011;19049;52.524;11.468;2022-11-04T00:26:53;4.93;;;3.13;;
32639;SDS011;19049;52.524;11.468;2022-11-04T00:29:37;5.30;;;3.13;;
32639;SDS011;19049;52.524;11.468;2022-11-04T00:32:03;5.33;;;3.20;;
32639;SDS011;19049;52.524;11.468;2022-11-04T00:34:48;5.70;;;3.40;;
32639;SDS011;19049;52.524;11.468;2022-11-04T00:37:13;5.33;;;3.67;;
32639;SDS011;19049;52.524;11.468;2022-11-04T00:39:39;6.93;;;3.57;;
32639;SDS011;19049;52.524;11.468;2022-11-04T00:42:05;5.70;;;3.77;;
32639;SDS011;19049;52.524;11.468;2022-11-04T00:44:30;5.30;;;2.90;;
32639;SDS011;19049;52.524;11.468;2022-11-04T00:46:56;5.00;;;3.30;;
32639;SDS011;19049;52.524;11.468;2022-11-04T00:49:22;5.07;;;3.20;;
32639;SDS011;19049;52.524;11.468;2022-11-04T00:51:47;5.40;;;3.00;;
32639;SDS011;19049;52.524;11.468;2022-11-04T00:54:13;5.43;;;3.30;;
32639;SDS011;19049;52.524;11.468;2022-11-04T00:56:39;4.03;;;3.10;;
32639;SDS011;19049;52.524;11.468;2022-11-04T00:59:05;5.90;;;3.30;;
32639;SDS011;19049;52.524;11.468;2022-11-04T01:01:31;4.97;;;2.77;;
32639;SDS011;19049;52.524;11.468;2022-11-04T01:03:57;5.20;;;4.07;;
32639;SDS011;19049;52.524;11.468;2022-11-04T01:06:26;7.27;;;3.63;;
32639;SDS011;19049;52.524;11.468;2022-11-04T01:08:56;4.20;;;3.07;;
32639;SDS011;19049;52.524;11.468;2022-11-04T01:11:23;7.13;;;3.60;;
32639;SDS011;19049;52.524;11.468;2022-11-04T01:13:57;5.03;;;3.87;;
32639;SDS011;19049;52.524;11.468;2022-11-04T01:16:23;5.10;;;3.57;;
32639;SDS011;19049;52.524;11.468;2022-11-04T01:18:49;5.73;;;3.47;;
32639;SDS011;19049;52.524;11.468;2022-11-04T01:21:15;6.37;;;4.20;;
32639;SDS011;19049;52.524;11.468;2022-11-04T01:23:42;7.20;;;4.00;;
32639;SDS011;19049;52.524;11.468;2022-11-04T01:26:16;7.27;;;4.00;;
32639;SDS011;19049;52.524;11.468;2022-11-04T01:28:44;7.47;;;4.37;;
32639;SDS011;19049;52.524;11.468;2022-11-04T01:31:14;7.63;;;4.57;;
32639;SDS011;19049;52.524;11.468;2022-11-04T01:33:41;5.30;;;3.97;;
32639;SDS011;19049;52.524;11.468;2022-11-04T01:36:08;8.17;;;4.33;;
32639;SDS011;19049;52.524;11.468;2022-11-04T01:38:37;7.00;;;4.40;;
32639;SDS011;19049;52.524;11.468;2022-11-04T01:41:03;6.93;;;3.80;;
32639;SDS011;19049;52.524;11.468;2022-11-04T01:49:48;7.67;;;4.77;;
32639;SDS011;19049;52.524;11.468;2022-11-04T01:52:00;5.47;;;4.27;;
32639;SDS011;19049;52.524;11.468;2022-11-04T01:54:29;5.80;;;4.10;;
32639;SDS011;19049;52.524;11.468;2022-11-04T01:56:55;7.17;;;4.47;;
32639;SDS011;19049;52.524;11.468;2022-11-04T01:59:25;7.37;;;4.50;;
32639;SDS011;19049;52.524;11.468;2022-11-04T02:01:54;6.83;;;3.40;;
32639;SDS011;19049;52.524;11.468;2022-11-04T02:04:20;7.10;;;5.37;;
32639;SDS011;19049;52.524;11.468;2022-11-04T02:06:59;6.93;;;4.33;;
32639;SDS011;19049;52.524;11.468;2022-11-04T02:09:27;6.83;;;4.57;;
32639;SDS011;19049;52.524;11.468;2022-11-04T02:11:54;8.73;;;4.40;;
32639;SDS011;19049;52.524;11.468;2022-11-04T02:14:39;8.37;;;5.10;;
32639;SDS011;19049;52.524;11.468;2022-11-04T02:17:17;8.80;;;4.63;;
32639;SDS011;19049;52.524;11.468;2022-11-04T02:28:04;7.60;;;4.87;;
32639;SDS011;19049;52.524;11.468;2022-11-04T02:31:01;6.93;;;4.50;;
32639;SDS011;19049;52.524;11.468;2022-11-04T02:33:49;7.63;;;4.27;;
32639;SDS011;19049;52.524;11.468;2022-11-04T02:36:47;7.80;;;4.40;;
32639;SDS011;19049;52.524;11.468;2022-11-04T02:45:19;4.73;;;3.43;;
32639;SDS011;19049;52.524;11.468;2022-11-04T02:47:50;6.13;;;3.67;;
32639;SDS011;19049;52.524;11.468;2022-11-04T02:52:58;5.30;;;3.70;;
32639;SDS011;19049;52.524;11.468;2022-11-04T02:55:32;4.77;;;3.50;;
32639;SDS011;19049;52.524;11.468;2022-11-04T02:58:04;6.23;;;3.40;;
32639;SDS011;19049;52.524;11.468;2022-11-04T03:00:35;4.90;;;4.03;;
32639;SDS011;19049;52.524;11.468;2022-11-04T03:03:05;5.93;;;3.70;;
32639;SDS011;19049;52.524;11.468;2022-11-04T03:05:35;6.03;;;3.93;;
32639;SDS011;19049;52.524;11.468;2022-11-04T03:08:26;6.13;;;4.10;;
32639;SDS011;19049;52.524;11.468;2022-11-04T03:11:05;6.40;;;4.13;;
32639;SDS011;19049;52.524;11.468;2022-11-04T03:13:43;6.93;;;5.33;;
32639;SDS011;19049;52.524;11.468;2022-11-04T03:16:16;7.63;;;4.67;;
32639;SDS011;19049;52.524;11.468;2022-11-04T03:18:56;8.60;;;4.70;;
32639;SDS011;19049;52.524;11.468;2022-11-04T03:21:30;8.30;;;5.03;;
32639;SDS011;19049;52.524;11.468;2022-11-04T03:23:59;5.93;;;4.07;;
32639;SDS011;19049;52.524;11.468;2022-11-04T03:26:31;6.50;;;4.43;;
32639;SDS011;19049;52.524;11.468;2022-11-04T03:29:08;8.10;;;4.13;;
32639;SDS011;19049;52.524;11.468;2022-11-04T03:31:44;7.63;;;4.63;;
32639;SDS011;19049;52.524;11.468;2022-11-04T03:34:20;4.93;;;3.90;;
32639;SDS011;19049;52.524;11.468;2022-11-04T03:36:46;7.23;;;4.70;;
32639;SDS011;19049;52.524;11.468;2022-11-04T03:39:12;6.97;;;4.67;;
32639;SDS011;19049;52.524;11.468;2022-11-04T03:41:39;5.60;;;3.93;;
32639;SDS011;19049;52.524;11.468;2022-11-04T03:44:09;5.67;;;3.93;;
32639;SDS011;19049;52.524;11.468;2022-11-04T03:46:34;7.40;;;4.10;;
32639;SDS011;19049;52.524;11.468;2022-11-04T03:49:00;7.43;;;4.90;;
32639;SDS011;19049;52.524;11.468;2022-11-04T03:51:27;7.87;;;5.17;;
32639;SDS011;19049;52.524;11.468;2022-11-04T03:53:53;7.57;;;4.30;;
32639;SDS011;19049;52.524;11.468;2022-11-04T04:03:58;8.37;;;5.00;;
32639;SDS011;19049;52.524;11.468;2022-11-04T04:06:34;8.23;;;5.67;;
32639;SDS011;19049;52.524;11.468;2022-11-04T04:11:57;9.40;;;5.30;;
32639;SDS011;19049;52.524;11.468;2022-11-04T04:14:33;6.70;;;4.43;;
32639;SDS011;19049;52.524;11.468;2022-11-04T04:17:10;6.13;;;4.13;;
32639;SDS011;19049;52.524;11.468;2022-11-04T04:20:01;7.63;;;4.43;;
32639;SDS011;19049;52.524;11.468;2022-11-04T04:22:34;5.43;;;4.47;;
32639;SDS011;19049;52.524;11.468;2022-11-04T04:25:13;5.00;;;4.23;;
32639;SDS011;19049;52.524;11.468;2022-11-04T04:27:59;6.30;;;5.07;;
32639;SDS011;19049;52.524;11.468;2022-11-04T04:30:27;7.37;;;4.77;;
32639;SDS011;19049;52.524;11.468;2022-11-04T04:35:32;8.00;;;4.83;;
32639;SDS011;19049;52.524;11.468;2022-11-04T04:38:13;7.57;;;5.43;;
32639;SDS011;19049;52.524;11.468;2022-11-04T04:41:25;6.77;;;5.00;;
32639;SDS011;19049;52.524;11.468;2022-11-04T04:47:14;6.80;;;4.53;;
32639;SDS011;19049;52.524;11.468;2022-11-04T04:49:49;7.63;;;4.70;;
32639;SDS011;19049;52.524;11.468;2022-11-04T04:52:15;7.60;;;5.20;;
32639;SDS011;19049;52.524;11.468;2022-11-04T04:54:41;7.70;;;5.80;;
32639;SDS011;19049;52.524;11.468;2022-11-04T04:57:09;6.97;;;5.80;;
32639;SDS011;19049;52.524;11.468;2022-11-04T04:59:34;7.30;;;4.83;;
32639;SDS011;19049;52.524;11.468;2022-11-04T05:02:00;7.87;;;4.93;;
32639;SDS011;19049;52.524;11.468;2022-11-04T05:04:26;7.20;;;5.03;;
32639;SDS011;19049;52.524;11.468;2022-11-04T05:06:51;8.03;;;5.00;;
32639;SDS011;19049;52.524;11.468;2022-11-04T05:09:17;7.07;;;5.23;;
32639;SDS011;19049;52.524;11.468;2022-11-04T05:11:42;9.10;;;5.37;;
32639;SDS011;19049;52.524;11.468;2022-11-04T05:14:08;8.77;;;5.30;;
32639;SDS011;19049;52.524;11.468;2022-11-04T05:16:34;9.03;;;6.23;;
32639;SDS011;19049;52.524;11.468;2022-11-04T05:18:59;9.80;;;6.50;;
32639;SDS011;19049;52.524;11.468;2022-11-04T05:21:25;7.47;;;5.77;;
32639;SDS011;19049;52.524;11.468;2022-11-04T05:23:51;7.07;;;5.17;;
32639;SDS011;19049;52.524;11.468;2022-11-04T05:26:16;5.87;;;4.30;;
32639;SDS011;19049;52.524;11.468;2022-11-04T05:28:42;7.23;;;4.70;;
32639;SDS011;19049;52.524;11.468;2022-11-04T05:31:08;6.57;;;4.80;;
32639;SDS011;19049;52.524;11.468;2022-11-04T05:33:34;7.00;;;5.00;;
32639;SDS011;19049;52.524;11.468;2022-11-04T05:36:09;7.33;;;5.40;;
32639;SDS011;19049;52.524;11.468;2022-11-04T05:38:36;7.00;;;5.10;;
32639;SDS011;19049;52.524;11.468;2022-11-04T05:41:05;8.60;;;4.87;;
32639;SDS011;19049;52.524;11.468;2022-11-04T05:43:35;5.60;;;4.43;;
32639;SDS011;19049;52.524;11.468;2022-11-04T05:46:01;6.93;;;5.47;;
32639;SDS011;19049;52.524;11.468;2022-11-04T05:48:29;6.43;;;4.67;;
32639;SDS011;19049;52.524;11.468;2022-11-04T05:50:55;7.00;;;4.90;;
32639;SDS011;19049;52.524;11.468;2022-11-04T05:53:20;7.10;;;4.30;;
32639;SDS011;19049;52.524;11.468;2022-11-04T05:55:57;6.97;;;4.80;;
32639;SDS011;19049;52.524;11.468;2022-11-04T05:58:26;6.23;;;4.63;;
32639;SDS011;19049;52.524;11.468;2022-11-04T06:00:51;5.53;;;4.80;;
32639;SDS011;19049;52.524;11.468;2022-11-04T06:03:17;5.03;;;4.40;;
32639;SDS011;19049;52.524;11.468;2022-11-04T06:05:42;6.77;;;4.63;;
32639;SDS011;19049;52.524;11.468;2022-11-04T06:08:08;6.47;;;4.33;;
32639;SDS011;19049;52.524;11.468;2022-11-04T06:10:34;5.13;;;4.20;;
32639;SDS011;19049;52.524;11.468;2022-11-04T06:13:01;5.37;;;4.00;;
32639;SDS011;19049;52.524;11.468;2022-11-04T06:15:27;6.20;;;4.67;;
32639;SDS011;19049;52.524;11.468;2022-11-04T06:17:53;6.40;;;4.83;;
32639;SDS011;19049;52.524;11.468;2022-11-04T06:20:18;4.97;;;4.10;;
32639;SDS011;19049;52.524;11.468;2022-11-04T06:22:48;5.57;;;4.10;;
32639;SDS011;19049;52.524;11.468;2022-11-04T06:25:24;4.63;;;3.83;;
32639;SDS011;19049;52.524;11.468;2022-11-04T06:27:50;4.83;;;4.10;;
32639;SDS011;19049;52.524;11.468;2022-11-04T06:30:23;4.83;;;3.60;;
32639;SDS011;19049;52.524;11.468;2022-11-04T06:32:51;6.60;;;3.90;;
32639;SDS011;19049;52.524;11.468;2022-11-04T06:35:17;6.43;;;3.93;;
32639;SDS011;19049;52.524;11.468;2022-11-04T06:37:45;4.93;;;3.67;;
32639;SDS011;19049;52.524;11.468;2022-11-04T06:40:15;4.43;;;3.27;;
32639;SDS011;19049;52.524;11.468;2022-11-04T06:42:41;5.17;;;3.57;;
32639;SDS011;19049;52.524;11.468;2022-11-04T06:45:15;4.33;;;3.57;;
32639;SDS011;19049;52.524;11.468;2022-11-04T06:47:41;4.83;;;3.43;;
32639;SDS011;19049;52.524;11.468;2022-11-04T06:50:07;4.33;;;3.40;;
32639;SDS011;19049;52.524;11.468;2022-11-04T06:52:33;4.37;;;3.90;;
32639;SDS011;19049;52.524;11.468;2022-11-04T06:54:58;5.47;;;3.73;;
32639;SDS011;19049;52.524;11.468;2022-11-04T06:57:24;4.13;;;3.60;;
32639;SDS011;19049;52.524;11.468;2022-11-04T06:59:50;3.60;;;3.00;;
32639;SDS011;19049;52.524;11.468;2022-11-04T07:02:17;3.60;;;3.10;;
32639;SDS011;19049;52.524;11.468;2022-11-04T07:04:45;3.80;;;2.87;;
32639;SDS011;19049;52.524;11.468;2022-11-04T07:07:11;3.37;;;3.07;;
32639;SDS011;19049;52.524;11.468;2022-11-04T07:09:49;2.93;;;2.63;;
32639;SDS011;19049;52.524;11.468;2022-11-04T07:12:20;2.60;;;2.37;;
32639;SDS011;19049;52.524;11.468;2022-11-04T07:14:48;3.23;;;2.30;;
32639;SDS011;19049;52.524;11.468;2022-11-04T07:17:22;2.17;;;1.97;;
32639;SDS011;19049;52.524;11.468;2022-11-04T07:19:48;2.33;;;2.00;;
32639;SDS011;19049;52.524;11.468;2022-11-04T07:22:14;2.40;;;2.07;;
32639;SDS011;19049;52.524;11.468;2022-11-04T07:24:39;3.43;;;2.40;;
32639;SDS011;19049;52.524;11.468;2022-11-04T07:27:07;1.90;;;1.80;;
32639;SDS011;19049;52.524;11.468;2022-11-04T07:29:33;1.80;;;1.70;;
32639;SDS011;19049;52.524;11.468;2022-11-04T07:31:58;1.73;;;1.63;;
32639;SDS011;19049;52.524;11.468;2022-11-04T07:34:26;2.30;;;2.10;;
32639;SDS011;19049;52.524;11.468;2022-11-04T07:36:52;2.37;;;2.03;;
32639;SDS011;19049;52.524;11.468;2022-11-04T07:39:18;3.27;;;1.90;;
32639;SDS011;19049;52.524;11.468;2022-11-04T07:41:46;2.27;;;1.60;;
32639;SDS011;19049;52.524;11.468;2022-11-04T07:44:12;1.80;;;1.63;;
32639;SDS011;19049;52.524;11.468;2022-11-04T07:46:55;2.20;;;1.60;;
32639;SDS011;19049;52.524;11.468;2022-11-04T07:49:21;1.80;;;1.57;;
32639;SDS011;19049;52.524;11.468;2022-11-04T07:51:47;2.10;;;1.67;;
32639;SDS011;19049;52.524;11.468;2022-11-04T07:54:12;1.73;;;1.60;;
32639;SDS011;19049;52.524;11.468;2022-11-04T07:56:38;2.17;;;1.57;;
32639;SDS011;19049;52.524;11.468;2022-11-04T07:59:04;1.87;;;1.40;;
32639;SDS011;19049;52.524;11.468;2022-11-04T08:01:31;2.30;;;1.47;;
32639;SDS011;19049;52.524;11.468;2022-11-04T08:03:57;1.80;;;1.70;;
32639;SDS011;19049;52.524;11.468;2022-11-04T08:06:23;1.63;;;1.53;;
32639;SDS011;19049;52.524;11.468;2022-11-04T08:08:51;1.63;;;1.40;;
32639;SDS011;19049;52.524;11.468;2022-11-04T08:11:20;1.60;;;1.50;;
32639;SDS011;19049;52.524;11.468;2022-11-04T08:13:52;1.90;;;1.70;;
32639;SDS011;19049;52.524;11.468;2022-11-04T08:16:22;2.40;;;1.80;;
32639;SDS011;19049;52.524;11.468;2022-11-04T08:18:49;1.70;;;1.53;;
32639;SDS011;19049;52.524;11.468;2022-11-04T08:21:19;1.70;;;1.60;;
32639;SDS011;19049;52.524;11.468;2022-11-04T08:23:45;1.77;;;1.67;;
32639;SDS011;19049;52.524;11.468;2022-11-04T08:26:13;1.57;;;1.47;;
32639;SDS011;19049;52.524;11.468;2022-11-04T08:28:41;1.97;;;1.83;;
32639;SDS011;19049;52.524;11.468;2022-11-04T08:31:09;2.87;;;2.10;;
32639;SDS011;19049;52.524;11.468;2022-11-04T08:33:38;2.47;;;1.90;;
32639;SDS011;19049;52.524;11.468;2022-11-04T08:36:06;2.03;;;1.83;;
32639;SDS011;19049;52.524;11.468;2022-11-04T08:38:34;2.33;;;2.10;;
32639;SDS011;19049;52.524;11.468;2022-11-04T08:41:01;2.33;;;2.07;;
32639;SDS011;19049;52.524;11.468;2022-11-04T08:43:28;2.13;;;1.80;;
32639;SDS011;19049;52.524;11.468;2022-11-04T08:45:56;3.23;;;2.00;;
32639;SDS011;19049;52.524;11.468;2022-11-04T08:48:22;2.33;;;2.13;;
32639;SDS011;19049;52.524;11.468;2022-11-04T08:50:49;1.67;;;1.57;;
32639;SDS011;19049;52.524;11.468;2022-11-04T08:53:16;1.77;;;1.67;;
32639;SDS011;19049;52.524;11.468;2022-11-04T08:55:41;2.30;;;1.60;;
32639;SDS011;19049;52.524;11.468;2022-11-04T08:58:07;1.97;;;1.67;;
32639;SDS011;19049;52.524;11.468;2022-11-04T09:00:33;3.27;;;1.80;;
32639;SDS011;19049;52.524;11.468;2022-11-04T09:02:59;2.33;;;1.80;;
32639;SDS011;19049;52.524;11.468;2022-11-04T09:05:28;2.67;;;1.90;;
32639;SDS011;19049;52.524;11.468;2022-11-04T09:07:54;1.97;;;1.80;;
32639;SDS011;19049;52.524;11.468;2022-11-04T09:10:19;2.13;;;1.60;;
32639;SDS011;19049;52.524;11.468;2022-11-04T09:12:45;1.87;;;1.57;;
32639;SDS011;19049;52.524;11.468;2022-11-04T09:15:13;1.97;;;1.40;;
32639;SDS011;19049;52.524;11.468;2022-11-04T09:17:39;1.60;;;1.50;;
32639;SDS011;19049;52.524;11.468;2022-11-04T09:20:05;3.20;;;1.33;;
32639;SDS011;19049;52.524;11.468;2022-11-04T09:22:31;4.07;;;1.83;;
32639;SDS011;19049;52.524;11.468;2022-11-04T09:24:57;1.70;;;1.60;;
32639;SDS011;19049;52.524;11.468;2022-11-04T09:27:23;1.73;;;1.40;;
32639;SDS011;19049;52.524;11.468;2022-11-04T09:29:48;1.50;;;1.40;;
32639;SDS011;19049;52.524;11.468;2022-11-04T09:32:14;2.53;;;1.63;;
32639;SDS011;19049;52.524;11.468;2022-11-04T09:34:40;1.80;;;1.67;;
32639;SDS011;19049;52.524;11.468;2022-11-04T09:37:06;7.73;;;5.40;;
32639;SDS011;19049;52.524;11.468;2022-11-04T09:39:31;4.27;;;3.67;;
32639;SDS011;19049;52.524;11.468;2022-11-04T09:42:02;2.50;;;2.30;;
32639;SDS011;19049;52.524;11.468;2022-11-04T09:45:06;3.63;;;2.33;;
32639;SDS011;19049;52.524;11.468;2022-11-04T09:47:39;3.23;;;2.50;;
32639;SDS011;19049;52.524;11.468;2022-11-04T09:50:09;4.50;;;3.40;;
32639;SDS011;19049;52.524;11.468;2022-11-04T09:52:57;5.30;;;2.90;;
32639;SDS011;19049;52.524;11.468;2022-11-04T09:55:28;2.90;;;2.60;;
32639;SDS011;19049;52.524;11.468;2022-11-04T09:57:58;3.90;;;2.60;;
32639;SDS011;19049;52.524;11.468;2022-11-04T10:00:24;3.73;;;3.03;;
32639;SDS011;19049;52.524;11.468;2022-11-04T10:16:24;4.90;;;3.67;;
32639;SDS011;19049;52.524;11.468;2022-11-04T10:19:04;5.43;;;3.27;;
32639;SDS011;19049;52.524;11.468;2022-11-04T10:26:53;3.53;;;2.80;;
32639;SDS011;19049;52.524;11.468;2022-11-04T10:31:54;3.47;;;3.17;;
32639;SDS011;19049;52.524;11.468;2022-11-04T10:37:07;4.47;;;3.23;;
32639;SDS011;19049;52.524;11.468;2022-11-04T10:39:46;4.17;;;2.83;;
32639;SDS011;19049;52.524;11.468;2022-11-04T10:42:13;3.13;;;2.70;;
32639;SDS011;19049;52.524;11.468;2022-11-04T10:44:43;3.47;;;2.37;;
32639;SDS011;19049;52.524;11.468;2022-11-04T10:47:13;6.93;;;4.70;;
32639;SDS011;19049;52.524;11.468;2022-11-04T10:52:36;5.00;;;3.67;;
32639;SDS011;19049;52.524;11.468;2022-11-04T10:55:02;2.83;;;2.60;;
32639;SDS011;19049;52.524;11.468;2022-11-04T10:57:35;3.37;;;2.60;;
32639;SDS011;19049;52.524;11.468;2022-11-04T11:00:02;4.77;;;2.77;;
32639;SDS011;19049;52.524;11.468;2022-11-04T11:07:46;4.90;;;3.87;;
32639;SDS011;19049;52.524;11.468;2022-11-04T11:12:50;6.40;;;4.60;;
32639;SDS011;19049;52.524;11.468;2022-11-04T11:26:10;4.37;;;2.63;;
32639;SDS011;19049;52.524;11.468;2022-11-04T11:29:02;6.07;;;4.20;;
32639;SDS011;19049;52.524;11.468;2022-11-04T11:31:35;4.50;;;3.30;;
32639;SDS011;19049;52.524;11.468;2022-11-04T11:34:04;3.90;;;3.20;;
32639;SDS011;19049;52.524;11.468;2022-11-04T11:36:38;4.27;;;2.97;;
32639;SDS011;19049;52.524;11.468;2022-11-04T11:41:59;5.10;;;3.83;;
32639;SDS011;19049;52.524;11.468;2022-11-04T11:44:33;6.23;;;3.63;;
32639;SDS011;19049;52.524;11.468;2022-11-04T11:47:53;5.43;;;3.97;;
32639;SDS011;19049;52.524;11.468;2022-11-04T11:53:15;5.23;;;4.10;;
32639;SDS011;19049;52.524;11.468;2022-11-04T11:56:02;4.70;;;3.20;;
32639;SDS011;19049;52.524;11.468;2022-11-04T11:58:41;4.53;;;2.80;;
32639;SDS011;19049;52.524;11.468;2022-11-04T12:01:29;6.77;;;4.50;;
32639;SDS011;19049;52.524;11.468;2022-11-04T12:03:57;9.97;;;3.80;;
32639;SDS011;19049;52.524;11.468;2022-11-04T12:30:34;6.00;;;4.40;;
32639;SDS011;19049;52.524;11.468;2022-11-04T12:33:13;7.50;;;3.80;;
32639;SDS011;19049;52.524;11.468;2022-11-04T12:38:46;6.50;;;4.03;;
32639;SDS011;19049;52.524;11.468;2022-11-04T12:44:29;8.13;;;4.87;;
32639;SDS011;19049;52.524;11.468;2022-11-04T12:50:13;6.07;;;4.20;;
32639;SDS011;19049;52.524;11.468;2022-11-04T13:01:20;4.50;;;3.23;;
32639;SDS011;19049;52.524;11.468;2022-11-04T13:04:05;4.53;;;3.20;;
32639;SDS011;19049;52.524;11.468;2022-11-04T13:06:47;5.00;;;3.07;;
32639;SDS011;19049;52.524;11.468;2022-11-04T13:12:11;4.70;;;3.17;;
32639;SDS011;19049;52.524;11.468;2022-11-04T13:14:55;6.10;;;3.17;;
32639;SDS011;19049;52.524;11.468;2022-11-04T13:17:51;4.17;;;3.07;;
32639;SDS011;19049;52.524;11.468;2022-11-04T13:20:45;2.93;;;2.70;;
32639;SDS011;19049;52.524;11.468;2022-11-04T13:23:43;6.23;;;4.60;;
32639;SDS011;19049;52.524;11.468;2022-11-04T13:26:16;5.53;;;3.60;;
32639;SDS011;19049;52.524;11.468;2022-11-04T13:28:43;3.87;;;2.73;;
32639;SDS011;19049;52.524;11.468;2022-11-04T13:31:18;3.60;;;2.57;;
32639;SDS011;19049;52.524;11.468;2022-11-04T13:33:56;3.20;;;2.50;;
32639;SDS011;19049;52.524;11.468;2022-11-04T13:39:28;3.47;;;2.57;;
32639;SDS011;19049;52.524;11.468;2022-11-04T13:44:52;5.00;;;3.00;;
32639;SDS011;19049;52.524;11.468;2022-11-04T13:47:25;4.23;;;3.00;;
32639;SDS011;19049;52.524;11.468;2022-11-04T13:49:55;3.43;;;2.53;;
32639;SDS011;19049;52.524;11.468;2022-11-04T13:52:23;3.53;;;2.40;;
32639;SDS011;19049;52.524;11.468;2022-11-04T13:57:23;5.80;;;2.90;;
32639;SDS011;19049;52.524;11.468;2022-11-04T14:00:17;3.13;;;2.57;;
32639;SDS011;19049;52.524;11.468;2022-11-04T14:02:53;1.97;;;1.73;;
32639;SDS011;19049;52.524;11.468;2022-11-04T14:16:12;2.90;;;2.20;;
32639;SDS011;19049;52.524;11.468;2022-11-04T14:22:15;3.17;;;2.00;;
32639;SDS011;19049;52.524;11.468;2022-11-04T14:24:42;2.93;;;1.90;;
32639;SDS011;19049;52.524;11.468;2022-11-04T14:27:25;1.90;;;1.40;;
32639;SDS011;19049;52.524;11.468;2022-11-04T14:29:58;1.40;;;1.30;;
32639;SDS011;19049;52.524;11.468;2022-11-04T14:32:26;2.03;;;1.40;;
32639;SDS011;19049;52.524;11.468;2022-11-04T14:34:59;2.10;;;1.53;;
32639;SDS011;19049;52.524;11.468;2022-11-04T14:37:39;1.57;;;1.00;;
32639;SDS011;19049;52.524;11.468;2022-11-04T14:40:05;2.50;;;1.70;;
32639;SDS011;19049;52.524;11.468;2022-11-04T14:42:53;4.00;;;1.23;;
32639;SDS011;19049;52.524;11.468;2022-11-04T14:45:24;2.00;;;1.70;;
32639;SDS011;19049;52.524;11.468;2022-11-04T14:47:56;2.80;;;1.40;;
32639;SDS011;19049;52.524;11.468;2022-11-04T14:50:53;3.57;;;2.00;;
32639;SDS011;19049;52.524;11.468;2022-11-04T14:53:31;3.63;;;1.70;;
32639;SDS011;19049;52.524;11.468;2022-11-04T14:56:20;1.70;;;1.40;;
32639;SDS011;19049;52.524;11.468;2022-11-04T14:59:03;2.50;;;1.33;;
32639;SDS011;19049;52.524;11.468;2022-11-04T15:01:33;1.87;;;1.60;;
32639;SDS011;19049;52.524;11.468;2022-11-04T15:06:36;2.17;;;1.97;;
32639;SDS011;19049;52.524;11.468;2022-11-04T15:09:02;2.17;;;1.90;;
32639;SDS011;19049;52.524;11.468;2022-11-04T15:11:28;2.53;;;1.70;;
32639;SDS011;19049;52.524;11.468;2022-11-04T15:16:46;2.30;;;1.70;;
32639;SDS011;19049;52.524;11.468;2022-11-04T15:19:17;3.37;;;2.00;;
32639;SDS011;19049;52.524;11.468;2022-11-04T15:21:54;1.80;;;1.60;;
32639;SDS011;19049;52.524;11.468;2022-11-04T15:24:21;2.60;;;1.40;;
32639;SDS011;19049;52.524;11.468;2022-11-04T15:26:48;1.73;;;1.47;;
32639;SDS011;19049;52.524;11.468;2022-11-04T15:29:15;2.43;;;1.30;;
32639;SDS011;19049;52.524;11.468;2022-11-04T15:31:51;2.50;;;1.27;;
32639;SDS011;19049;52.524;11.468;2022-11-04T15:34:21;2.17;;;1.40;;
32639;SDS011;19049;52.524;11.468;2022-11-04T15:36:49;2.50;;;1.37;;
32639;SDS011;19049;52.524;11.468;2022-11-04T15:39:18;1.87;;;1.20;;
32639;SDS011;19049;52.524;11.468;2022-11-04T15:41:51;2.43;;;1.90;;
32639;SDS011;19049;52.524;11.468;2022-11-04T15:44:43;3.07;;;1.60;;
32639;SDS011;19049;52.524;11.468;2022-11-04T15:49:44;2.23;;;1.47;;
32639;SDS011;19049;52.524;11.468;2022-11-04T15:52:18;2.13;;;1.40;;
32639;SDS011;19049;52.524;11.468;2022-11-04T15:54:50;1.40;;;1.30;;
32639;SDS011;19049;52.524;11.468;2022-11-04T15:57:19;3.43;;;1.60;;
32639;SDS011;19049;52.524;11.468;2022-11-04T16:02:38;2.03;;;1.20;;
32639;SDS011;19049;52.524;11.468;2022-11-04T16:10:48;1.40;;;1.10;;
32639;SDS011;19049;52.524;11.468;2022-11-04T16:18:22;1.57;;;1.17;;
32639;SDS011;19049;52.524;11.468;2022-11-04T16:20:54;3.80;;;1.53;;
32639;SDS011;19049;52.524;11.468;2022-11-04T16:23:30;1.57;;;1.40;;
32639;SDS011;19049;52.524;11.468;2022-11-04T16:26:03;3.73;;;1.67;;
32639;SDS011;19049;52.524;11.468;2022-11-04T16:28:32;4.73;;;1.53;;
32639;SDS011;19049;52.524;11.468;2022-11-04T16:31:05;2.87;;;1.43;;
32639;SDS011;19049;52.524;11.468;2022-11-04T16:33:48;2.33;;;1.40;;
32639;SDS011;19049;52.524;11.468;2022-11-04T16:36:15;2.87;;;1.57;;
32639;SDS011;19049;52.524;11.468;2022-11-04T16:38:57;1.67;;;1.00;;
32639;SDS011;19049;52.524;11.468;2022-11-04T16:41:27;1.40;;;1.30;;
32639;SDS011;19049;52.524;11.468;2022-11-04T16:43:56;1.30;;;1.10;;
32639;SDS011;19049;52.524;11.468;2022-11-04T16:46:22;1.33;;;1.00;;
32639;SDS011;19049;52.524;11.468;2022-11-04T16:48:48;1.53;;;1.10;;
32639;SDS011;19049;52.524;11.468;2022-11-04T16:51:15;1.67;;;1.13;;
32639;SDS011;19049;52.524;11.468;2022-11-04T16:53:51;3.47;;;1.33;;
32639;SDS011;19049;52.524;11.468;2022-11-04T16:56:19;1.70;;;1.17;;
32639;SDS011;19049;52.524;11.468;2022-11-04T16:58:47;1.37;;;1.03;;
32639;SDS011;19049;52.524;11.468;2022-11-04T17:01:15;3.20;;;1.13;;
32639;SDS011;19049;52.524;11.468;2022-11-04T17:03:46;1.10;;;1.00;;
32639;SDS011;19049;52.524;11.468;2022-11-04T17:06:13;1.20;;;1.10;;
32639;SDS011;19049;52.524;11.468;2022-11-04T17:08:41;0.90;;;0.90;;
32639;SDS011;19049;52.524;11.468;2022-11-04T17:11:10;1.10;;;1.03;;
32639;SDS011;19049;52.524;11.468;2022-11-04T17:13:37;2.00;;;1.20;;
32639;SDS011;19049;52.524;11.468;2022-11-04T17:16:06;2.70;;;1.20;;
32639;SDS011;19049;52.524;11.468;2022-11-04T17:18:35;1.53;;;1.30;;
32639;SDS011;19049;52.524;11.468;2022-11-04T17:21:04;2.00;;;1.13;;
32639;SDS011;19049;52.524;11.468;2022-11-04T17:23:31;1.33;;;1.23;;
32639;SDS011;19049;52.524;11.468;2022-11-04T17:25:57;1.63;;;0.93;;
32639;SDS011;19049;52.524;11.468;2022-11-04T17:28:23;1.30;;;1.20;;
32639;SDS011;19049;52.524;11.468;2022-11-04T17:30:48;0.97;;;0.93;;
32639;SDS011;19049;52.524;11.468;2022-11-04T17:33:19;1.13;;;0.90;;
32639;SDS011;19049;52.524;11.468;2022-11-04T17:35:46;1.43;;;1.10;;
32639;SDS011;19049;52.524;11.468;2022-11-04T17:38:13;1.20;;;1.00;;
32639;SDS011;19049;52.524;11.468;2022-11-04T17:40:40;1.40;;;1.00;;
32639;SDS011;19049;52.524;11.468;2022-11-04T17:43:25;1.40;;;1.10;;
32639;SDS011;19049;52.524;11.468;2022-11-04T17:46:10;2.97;;;1.73;;
32639;SDS011;19049;52.524;11.468;2022-11-04T17:48:55;2.70;;;2.13;;
32639;SDS011;19049;52.524;11.468;2022-11-04T17:51:21;1.90;;;1.70;;
32639;SDS011;19049;52.524;11.468;2022-11-04T17:53:47;2.20;;;1.67;;
32639;SDS011;19049;52.524;11.468;2022-11-04T17:56:14;1.97;;;1.57;;